メインページ
METAR-TAF:

METAR-TAF

空港 :

釧路空港

釧路, 日本

緯度: 43-02N, 経度: 144-12E, 海抜: 95m

現時点の気象観測

当レポートは23分前の08:16(UTC)に作成
南/南東の風 10kt
気温 6°C
湿度 100%
気圧 1018 hPa
視程: 4000m
高度300ftの雲はほとんどない
高度500ftの雲は散在している
高度600ftの千切れ雲あり
弱いにわか雨, 靄

METAR: RJCK 240816Z 16010KT 4000 -SHRA BR FEW003 SCT005 BKN006 06/06 Q1018 RMK 1ST003 4ST005 6ST006 A3007

時間: 17:39 (08:39 UTC)

予報

当レポートは1時間38分前の07:01(UTC)に作成
予報は24日の 07時(UTC)から 25日の 12時(UTC)まで有効
の風 12kt
視程10km以上
高度400ftの雲はほとんどない
高度800ftの千切れ雲あり
24日の 07時(UTC)から 24日の 12時(UTC)まで一時的に
視程: 2000m
高度200ftの雲はほとんどない
高度400ftの千切れ雲あり
弱いにわか雨, 靄
24日の 12時(UTC)から 24日の 21時(UTC)まで一時的に
視程: 1500m
高度100ftの雲はほとんどない
高度300ftの千切れ雲あり
弱いにわか雨, 靄
24日の 21時(UTC)から 25日の 09時(UTC)まで一時的に
視程: 0700m
高度100ftの
にわか雨, 霧
25日の 09時(UTC)から 25日の 12時(UTC)まで徐々に
西/南西の風 5kt
高度800ftの雲はほとんどない
高度1500ftの千切れ雲あり

TAF: RJCK 240701Z 2407/2512 17012KT 9999 FEW004 BKN008 TEMPO 2407/2412 2000 -SHRA BR FEW002 BKN004 TEMPO 2412/2421 1500 -SHRA BR FEW001 BKN003 TEMPO 2421/2509 0700 SHRA FG VV001 BECMG 2509/2512 24005KT FEW008 BKN015

4,000以上の空港の気象観測と天気予報(METAR報とTAF報)

利用可能な観測所は地図上に黄色い丸と赤い丸で示す。

丸の上にカーソルを重ねると観測所名を参照できる。

次にクリックすると気象観測と天気予報を参照できる。

マップの切り替え:黒色「×」印の緑ボタンをクリックして拡大、「-」印の緑ボタンをクリックして縮小、緑色の三角印をクリックして隣りの地図に切り替え


METAR-TAF: